createdAt,value
2023-01-10T00:01:56.999Z,99400.24
2023-01-10T00:04:34.965Z,99399.25
2023-01-10T00:07:18.103Z,99398.66
2023-01-10T00:10:14.548Z,99399.77
2023-01-10T00:13:27.013Z,99401.36
2023-01-10T00:16:11.993Z,99402.01
2023-01-10T00:18:46.020Z,99408.27
2023-01-10T00:21:19.949Z,99417.91
2023-01-10T00:24:19.274Z,99428.67
2023-01-10T00:27:04.578Z,99430.10
2023-01-10T00:30:01.878Z,99441.35
2023-01-10T00:32:38.662Z,99443.52
2023-01-10T00:35:14.413Z,99447.55
2023-01-10T00:37:52.444Z,99447.42
2023-01-10T00:40:26.815Z,99445.54
2023-01-10T00:43:19.581Z,99447.34
2023-01-10T00:46:13.768Z,99450.51
2023-01-10T00:48:47.700Z,99451.27
2023-01-10T00:51:25.758Z,99455.30
2023-01-10T00:54:00.148Z,99460.04
2023-01-10T00:56:47.966Z,99467.70
2023-01-10T00:59:41.280Z,99468.23
2023-01-10T01:02:35.664Z,99473.69
2023-01-10T01:05:30.359Z,99481.35
2023-01-10T01:08:24.543Z,99479.98
2023-01-10T01:11:18.670Z,99478.05
2023-01-10T01:14:13.004Z,99481.37
2023-01-10T01:17:07.529Z,99486.39
2023-01-10T01:19:51.774Z,99488.55
2023-01-10T01:22:46.019Z,99488.55
2023-01-10T01:25:22.852Z,99489.80
2023-01-10T01:27:59.967Z,99494.16
2023-01-10T01:30:44.811Z,99492.35
2023-01-10T01:33:31.784Z,99497.39
2023-01-10T01:36:18.244Z,99505.79
2023-01-10T01:39:04.184Z,99510.30
2023-01-10T01:42:01.182Z,99510.42
2023-01-10T01:44:38.136Z,99512.67
2023-01-10T01:47:32.358Z,99509.86
2023-01-10T01:50:21.488Z,99517.66
2023-01-10T01:53:21.373Z,99516.39
2023-01-10T01:56:21.376Z,99514.73
2023-01-10T01:59:20.662Z,99511.23
2023-01-10T02:02:09.334Z,99515.15
2023-01-10T02:05:07.506Z,99519.17
2023-01-10T02:08:03.774Z,99522.73
2023-01-10T02:10:44.083Z,99523.15
2023-01-10T02:13:28.016Z,99532.95
2023-01-10T02:16:05.426Z,99532.38
2023-01-10T02:19:00.445Z,99536.26
2023-01-10T02:22:26.299Z,99546.13
2023-01-10T02:25:54.381Z,99541.99
2023-01-10T02:29:04.015Z,99544.63
2023-01-10T02:32:14.927Z,99547.90
2023-01-10T02:35:00.024Z,99549.52
2023-01-10T02:37:45.677Z,99550.11
2023-01-10T02:40:35.987Z,99551.52
2023-01-10T02:43:35.116Z,99550.96
2023-01-10T02:46:25.662Z,99554.11
2023-01-10T02:49:19.835Z,99553.35
2023-01-10T02:52:04.953Z,99551.06
2023-01-10T02:54:56.242Z,99547.54
2023-01-10T02:57:43.454Z,99550.63
2023-01-10T03:00:47.089Z,99556.90
2023-01-10T03:03:35.870Z,99562.56
2023-01-10T03:06:42.011Z,99561.20
2023-01-10T03:09:42.847Z,99563.36
2023-01-10T03:12:42.592Z,99565.61
2023-01-10T03:15:31.924Z,99566.48
2023-01-10T03:18:30.210Z,99566.31
2023-01-10T03:21:25.669Z,99566.42
2023-01-10T03:24:25.902Z,99568.85
2023-01-10T03:27:26.240Z,99572.65
2023-01-10T03:30:20.578Z,99570.59
2023-01-10T03:33:18.369Z,99572.48
2023-01-10T03:36:27.260Z,99575.46
2023-01-10T03:39:14.874Z,99577.25
2023-01-10T03:42:14.975Z,99585.05
2023-01-10T03:45:16.529Z,99586.39
2023-01-10T03:48:13.029Z,99586.17
2023-01-10T03:50:48.544Z,99588.92
2023-01-10T03:53:43.097Z,99594.41
2023-01-10T03:56:47.509Z,99595.23
2023-01-10T03:59:42.233Z,99599.23
2023-01-10T04:02:16.387Z,99603.02
2023-01-10T04:05:12.255Z,99603.38
2023-01-10T04:07:57.336Z,99607.66
2023-01-10T04:10:53.664Z,99616.44
2023-01-10T04:13:47.234Z,99622.45
2023-01-10T04:16:24.760Z,99631.03
2023-01-10T04:19:09.467Z,99633.48
2023-01-10T04:21:43.532Z,99638.64
2023-01-10T04:24:37.769Z,99640.44
2023-01-10T04:27:15.163Z,99644.65
2023-01-10T04:29:59.787Z,99651.69
2023-01-10T04:32:43.994Z,99651.91
2023-01-10T04:35:29.066Z,99654.89
2023-01-10T04:38:13.217Z,99658.25
2023-01-10T04:41:07.307Z,99660.17
2023-01-10T04:44:01.613Z,99663.35
2023-01-10T04:46:45.964Z,99673.05
2023-01-10T04:49:39.837Z,99677.75
2023-01-10T04:52:26.540Z,99683.83
2023-01-10T04:55:04.131Z,99693.60
2023-01-10T04:57:58.416Z,99702.08
2023-01-10T05:00:46.592Z,99708.20
2023-01-10T05:03:30.971Z,99713.84
2023-01-10T05:06:08.272Z,99718.66
2023-01-10T05:08:52.614Z,99719.70
2023-01-10T05:11:37.070Z,99719.63
2023-01-10T05:14:11.013Z,99724.45
2023-01-10T05:16:44.695Z,99726.76
2023-01-10T05:19:39.282Z,99736.70
2023-01-10T05:22:12.721Z,99744.56
2023-01-10T05:24:57.240Z,99747.19
2023-01-10T05:27:51.220Z,99750.83
2023-01-10T05:30:37.963Z,99750.52
2023-01-10T05:33:31.927Z,99758.09
2023-01-10T05:36:10.234Z,99765.29
2023-01-10T05:38:45.477Z,99771.75
2023-01-10T05:41:39.922Z,99778.56
2023-01-10T05:44:24.554Z,99782.07
2023-01-10T05:47:18.993Z,99787.65
2023-01-10T05:50:14.234Z,99797.39
2023-01-10T05:53:07.894Z,99801.14
2023-01-10T05:56:03.561Z,99803.52
2023-01-10T05:59:07.857Z,99805.55
2023-01-10T06:02:06.019Z,99815.35
2023-01-10T06:04:52.484Z,99821.56
2023-01-10T06:07:36.564Z,99825.70
2023-01-10T06:10:14.421Z,99833.36
2023-01-10T06:12:58.761Z,99836.04
2023-01-10T06:15:41.948Z,99837.48
2023-01-10T06:18:36.043Z,99842.99
2023-01-10T06:21:13.528Z,99847.09
2023-01-10T06:23:47.421Z,99850.82
2023-01-10T06:26:23.386Z,99858.22
2023-01-10T06:29:17.270Z,99861.90
2023-01-10T06:32:01.851Z,99867.81
2023-01-10T06:34:38.233Z,99869.87
2023-01-10T06:37:22.870Z,99879.55
2023-01-10T06:40:11.870Z,99883.48
2023-01-10T06:43:06.635Z,99886.52
2023-01-10T06:45:40.719Z,99889.33
2023-01-10T06:48:15.155Z,99893.59
2023-01-10T06:50:48.780Z,99892.36
2023-01-10T06:53:43.546Z,99900.48
2023-01-10T06:56:20.578Z,99902.63
2023-01-10T06:59:15.116Z,99911.68
2023-01-10T07:02:11.743Z,99912.39
2023-01-10T07:04:49.739Z,99912.85
2023-01-10T07:07:43.871Z,99910.95
2023-01-10T07:10:18.385Z,99915.95
2023-01-10T07:13:13.127Z,99922.94
2023-01-10T07:16:09.722Z,99924.67
2023-01-10T07:19:03.754Z,99927.17
2023-01-10T07:21:57.952Z,99925.94
2023-01-10T07:24:42.193Z,99928.63
2023-01-10T07:27:15.987Z,99929.05
2023-01-10T07:30:02.017Z,99930.68
2023-01-10T07:32:37.580Z,99934.12
2023-01-10T07:35:12.425Z,99941.23
2023-01-10T07:37:59.616Z,99942.16
2023-01-10T07:40:53.960Z,99944.08
2023-01-10T07:43:27.807Z,99942.27
2023-01-10T07:46:14.472Z,99945.97
2023-01-10T07:49:09.045Z,99952.01
2023-01-10T07:51:53.226Z,99950.14
2023-01-10T07:54:37.383Z,99952.66
2023-01-10T07:57:13.746Z,99953.46
2023-01-10T08:00:10.949Z,99953.11
2023-01-10T08:03:06.641Z,99961.24
2023-01-10T08:05:41.213Z,99961.80
2023-01-10T08:08:25.284Z,99967.45
2023-01-10T08:11:19.702Z,99976.45
2023-01-10T08:13:54.083Z,99981.45
2023-01-10T08:16:40.779Z,99983.31
2023-01-10T08:19:34.793Z,99985.48
2023-01-10T08:22:19.408Z,99987.76
2023-01-10T08:25:14.209Z,99992.08
2023-01-10T08:27:51.892Z,99996.65
2023-01-10T08:30:49.010Z,99999.42
2023-01-10T08:33:44.492Z,100006.03
2023-01-10T08:36:38.830Z,100007.46
2023-01-10T08:39:35.478Z,100008.65
2023-01-10T08:42:12.403Z,100010.31
2023-01-10T08:44:46.982Z,100011.97
2023-01-10T08:50:25.354Z,100021.14
2023-01-10T08:53:03.427Z,100024.95
2023-01-10T08:55:50.249Z,100034.35
2023-01-10T08:58:26.683Z,100040.74
2023-01-10T09:01:12.293Z,100045.63
2023-01-10T09:04:07.112Z,100050.63
2023-01-10T09:07:01.421Z,100053.96
2023-01-10T09:09:39.914Z,100058.17
2023-01-10T09:12:45.793Z,100053.73
2023-01-10T09:15:19.919Z,100057.91
2023-01-10T09:18:15.887Z,100059.80
2023-01-10T09:21:03.395Z,100069.29
2023-01-10T09:23:40.372Z,100073.33
2023-01-10T09:26:17.763Z,100074.65
2023-01-10T09:29:05.168Z,100072.23
2023-01-10T09:31:42.879Z,100067.44
2023-01-10T09:34:25.337Z,100070.20
2023-01-10T09:37:10.443Z,100066.71
2023-01-10T09:39:58.679Z,100066.27
2023-01-10T09:42:57.490Z,100065.24
2023-01-10T09:46:00.639Z,100068.35
2023-01-10T09:49:03.211Z,100067.77
2023-01-10T09:52:00.037Z,100065.98
2023-01-10T09:54:55.423Z,100065.02
2023-01-10T09:57:29.805Z,100062.49
2023-01-10T10:00:05.451Z,100065.05
2023-01-10T10:02:47.308Z,100063.14
2023-01-10T10:05:25.575Z,100061.70
2023-01-10T10:08:16.773Z,100062.60
2023-01-10T10:11:33.520Z,100066.08
2023-01-10T10:14:35.502Z,100070.79
2023-01-10T10:17:44.007Z,100070.98
2023-01-10T10:20:47.347Z,100072.25
2023-01-10T10:23:34.512Z,100073.38
2023-01-10T10:26:29.989Z,100076.88
2023-01-10T10:29:51.410Z,100077.65
2023-01-10T10:32:44.829Z,100080.10
2023-01-10T10:35:33.853Z,100082.42
2023-01-10T10:38:24.085Z,100086.23
2023-01-10T10:41:31.987Z,100088.45
2023-01-10T10:44:29.523Z,100092.13
2023-01-10T10:47:03.819Z,100089.80
2023-01-10T10:50:02.929Z,100089.94
2023-01-10T10:52:40.434Z,100096.89
2023-01-10T10:55:20.292Z,100105.45
2023-01-10T10:58:00.370Z,100106.34
2023-01-10T11:00:37.786Z,100102.23
2023-01-10T11:03:40.847Z,100102.34
2023-01-10T11:06:17.777Z,100105.06
2023-01-10T11:09:06.255Z,100101.81
2023-01-10T11:11:46.102Z,100099.41
2023-01-10T11:14:46.373Z,100103.58
2023-01-10T11:17:41.974Z,100106.21
2023-01-10T11:20:25.115Z,100108.27
2023-01-10T11:23:10.959Z,100116.91
2023-01-10T11:25:50.497Z,100126.29
2023-01-10T11:28:46.190Z,100137.08
2023-01-10T11:31:41.257Z,100142.23
2023-01-10T11:34:37.868Z,100146.30
2023-01-10T11:37:29.455Z,100153.20
2023-01-10T11:40:26.108Z,100156.52
2023-01-10T11:43:33.466Z,100160.38
2023-01-10T11:46:27.800Z,100163.09
2023-01-10T11:49:20.393Z,100163.75
2023-01-10T11:51:59.315Z,100165.51
2023-01-10T11:54:44.864Z,100163.17
2023-01-10T11:57:24.366Z,100162.84
2023-01-10T12:00:00.606Z,100162.36
2023-01-10T12:02:46.846Z,100167.59
2023-01-10T12:05:41.433Z,100174.70
2023-01-10T12:08:36.986Z,100180.34
2023-01-10T12:11:27.589Z,100185.17
2023-01-10T12:14:03.441Z,100187.56
2023-01-10T12:16:40.237Z,100189.59
2023-01-10T12:19:34.088Z,100192.63
2023-01-10T12:22:09.316Z,100202.19
2023-01-10T12:24:53.598Z,100207.34
2023-01-10T12:27:37.767Z,100207.27
2023-01-10T12:30:36.611Z,100215.70
2023-01-10T12:33:34.861Z,100217.44
2023-01-10T12:36:32.574Z,100218.95
2023-01-10T12:39:24.852Z,100218.78
2023-01-10T12:42:36.104Z,100225.11
2023-01-10T12:45:33.213Z,100233.41
2023-01-10T12:48:20.075Z,100233.83
2023-01-10T12:51:03.717Z,100237.16
2023-01-10T12:54:04.008Z,100238.31
2023-01-10T12:56:49.353Z,100240.63
2023-01-10T12:59:37.730Z,100244.11
2023-01-10T13:02:27.254Z,100248.56
2023-01-10T13:05:20.690Z,100252.97
2023-01-10T13:07:56.411Z,100255.73
2023-01-10T13:10:53.529Z,100258.98
2023-01-10T13:13:55.740Z,100264.29
2023-01-10T13:16:38.444Z,100274.24
2023-01-10T13:19:32.622Z,100277.79
2023-01-10T13:22:24.985Z,100277.95
2023-01-10T13:25:26.538Z,100280.55
2023-01-10T13:28:26.176Z,100286.40
2023-01-10T13:31:30.377Z,100294.21
2023-01-10T13:34:26.816Z,100303.30
2023-01-10T13:37:23.687Z,100311.82
2023-01-10T13:40:28.497Z,100315.71
2023-01-10T13:43:50.138Z,100319.09
2023-01-10T13:46:45.854Z,100317.58
2023-01-10T13:49:48.584Z,100321.33
2023-01-10T13:52:43.102Z,100316.77
2023-01-10T13:55:55.166Z,100323.98
2023-01-10T13:59:07.310Z,100328.59
2023-01-10T14:02:21.388Z,100331.11
2023-01-10T14:05:18.037Z,100337.11
2023-01-10T14:08:02.829Z,100339.85
2023-01-10T14:11:09.162Z,100345.13
2023-01-10T14:14:05.059Z,100345.48
2023-01-10T14:17:12.399Z,100351.70
2023-01-10T14:20:21.234Z,100358.45
2023-01-10T14:23:23.114Z,100357.17
2023-01-10T14:26:27.779Z,100359.85
2023-01-10T14:29:07.837Z,100358.84
2023-01-10T14:32:03.344Z,100356.65
2023-01-10T14:34:39.523Z,100360.81
2023-01-10T14:37:29.723Z,100364.55
2023-01-10T14:40:06.050Z,100369.14
2023-01-10T14:42:41.791Z,100371.07
2023-01-10T14:45:40.404Z,100372.99
2023-01-10T14:48:35.662Z,100376.02
2023-01-10T14:51:30.796Z,100373.69
2023-01-10T14:54:25.791Z,100373.60
2023-01-10T14:56:59.874Z,100373.83
2023-01-10T14:59:36.508Z,100371.21
2023-01-10T15:02:23.191Z,100373.80
2023-01-10T15:05:02.768Z,100382.95
2023-01-10T15:07:57.853Z,100387.48
2023-01-10T15:10:42.588Z,100386.02
2023-01-10T15:13:50.496Z,100385.83
2023-01-10T15:16:37.414Z,100387.94
2023-01-10T15:19:19.837Z,100391.14
2023-01-10T15:22:30.626Z,100393.63
2023-01-10T15:25:27.379Z,100393.98
2023-01-10T15:28:22.181Z,100399.80
2023-01-10T15:31:17.926Z,100405.60
2023-01-10T15:34:12.312Z,100412.74
2023-01-10T15:37:03.362Z,100417.25
2023-01-10T15:39:59.077Z,100415.18
2023-01-10T15:42:53.915Z,100416.05
2023-01-10T15:45:40.453Z,100420.00
2023-01-10T15:48:37.492Z,100422.73
2023-01-10T15:51:35.632Z,100430.02
2023-01-10T15:54:34.859Z,100437.70
2023-01-10T15:57:33.448Z,100447.59
2023-01-10T16:00:27.564Z,100451.15
2023-01-10T16:03:01.605Z,100448.34
2023-01-10T16:05:59.518Z,100448.27
2023-01-10T16:08:49.969Z,100451.44
2023-01-10T16:11:50.612Z,100457.48
2023-01-10T16:14:38.283Z,100461.52
2023-01-10T16:17:14.993Z,100463.92
2023-01-10T16:19:51.717Z,100457.38
2023-01-10T16:22:47.550Z,100454.73
2023-01-10T16:25:45.951Z,100454.69
2023-01-10T16:28:38.582Z,100461.02
2023-01-10T16:31:32.742Z,100465.96
2023-01-10T16:34:27.386Z,100465.25
2023-01-10T16:37:21.762Z,100465.58
2023-01-10T16:40:20.340Z,100466.20
2023-01-10T16:43:15.102Z,100470.43
2023-01-10T16:46:09.539Z,100467.91
2023-01-10T16:49:06.936Z,100465.27
2023-01-10T16:51:42.500Z,100465.29
2023-01-10T16:54:28.085Z,100462.25
2023-01-10T16:57:01.874Z,100463.17
2023-01-10T16:59:35.691Z,100470.48
2023-01-10T17:02:22.228Z,100470.73
2023-01-10T17:05:08.544Z,100473.17
2023-01-10T17:07:42.500Z,100473.44
2023-01-10T17:10:16.719Z,100481.86
2023-01-10T17:12:55.816Z,100487.48
2023-01-10T17:15:40.465Z,100499.08
2023-01-10T17:18:14.619Z,100511.42
2023-01-10T17:21:13.021Z,100522.14
2023-01-10T17:23:48.152Z,100526.24
2023-01-10T17:26:35.382Z,100529.54
2023-01-10T17:29:30.685Z,100527.80
2023-01-10T17:32:25.127Z,100528.50
2023-01-10T17:35:19.385Z,100524.17
2023-01-10T17:38:16.880Z,100522.52
2023-01-10T17:41:11.743Z,100527.88
2023-01-10T17:44:06.151Z,100534.34
2023-01-10T17:46:54.971Z,100539.86
2023-01-10T17:49:39.129Z,100547.42
2023-01-10T17:52:33.506Z,100547.31
2023-01-10T17:55:09.256Z,100543.23
2023-01-10T17:57:53.467Z,100544.02
2023-01-10T18:00:49.187Z,100552.19
2023-01-10T18:03:34.802Z,100563.75
2023-01-10T18:06:22.827Z,100568.83
2023-01-10T18:09:08.705Z,100575.12
2023-01-10T18:12:03.225Z,100572.45
2023-01-10T18:14:40.402Z,100566.50
2023-01-10T18:17:15.094Z,100563.73
2023-01-10T18:19:49.710Z,100567.95
2023-01-10T18:23:01.701Z,100572.40
2023-01-10T18:25:37.680Z,100572.48
2023-01-10T18:28:39.021Z,100579.17
2023-01-10T18:31:28.605Z,100584.59
2023-01-10T18:34:23.626Z,100587.34
2023-01-10T18:37:19.356Z,100592.48
2023-01-10T18:40:16.346Z,100599.29
2023-01-10T18:43:02.461Z,100598.95
2023-01-10T18:45:39.147Z,100597.73
2023-01-10T18:48:19.143Z,100600.39
2023-01-10T18:51:06.661Z,100598.56
2023-01-10T18:54:01.626Z,100605.04
2023-01-10T18:56:51.488Z,100613.73
2023-01-10T18:59:26.128Z,100620.34
2023-01-10T19:02:02.631Z,100624.77
2023-01-10T19:04:55.948Z,100629.13
2023-01-10T19:07:34.763Z,100629.45
2023-01-10T19:10:12.505Z,100626.46
2023-01-10T19:12:47.992Z,100626.42
2023-01-10T19:15:29.334Z,100630.86
2023-01-10T19:18:15.351Z,100629.80
2023-01-10T19:21:05.422Z,100633.98
2023-01-10T19:23:41.640Z,100631.34
2023-01-10T19:26:17.512Z,100636.26
2023-01-10T19:28:58.222Z,100638.30
2023-01-10T19:31:37.830Z,100634.94
2023-01-10T19:34:25.374Z,100637.86
2023-01-10T19:37:21.888Z,100639.80
2023-01-10T19:40:17.832Z,100640.21
2023-01-10T19:42:54.582Z,100642.37
2023-01-10T19:45:49.690Z,100642.67
2023-01-10T19:48:45.136Z,100645.23
2023-01-10T19:51:31.080Z,100657.92
2023-01-10T19:54:27.280Z,100664.46
2023-01-10T19:57:03.662Z,100664.55
2023-01-10T19:59:41.998Z,100664.92
2023-01-10T20:02:37.140Z,100664.48
2023-01-10T20:05:12.660Z,100661.44
2023-01-10T20:08:09.784Z,100656.45
2023-01-10T20:11:01.044Z,100656.27
2023-01-10T20:13:56.286Z,100653.90
2023-01-10T20:16:42.419Z,100651.52
2023-01-10T20:19:38.154Z,100658.91
2023-01-10T20:22:13.074Z,100661.63
2023-01-10T20:24:47.867Z,100664.24
2023-01-10T20:27:33.741Z,100671.23
2023-01-10T20:30:09.837Z,100669.98
2023-01-10T20:32:47.232Z,100673.04
2023-01-10T20:35:26.431Z,100678.86
2023-01-10T20:38:21.846Z,100678.36
2023-01-10T20:41:18.479Z,100677.48
2023-01-10T20:44:04.270Z,100679.64
2023-01-10T20:46:39.291Z,100679.94
2023-01-10T20:49:26.102Z,100679.68
2023-01-10T20:52:00.933Z,100683.42
2023-01-10T20:54:39.517Z,100683.34
2023-01-10T20:57:17.563Z,100691.27
2023-01-10T21:00:14.572Z,100691.95
2023-01-10T21:02:58.217Z,100692.00
2023-01-10T21:05:51.143Z,100692.78
2023-01-10T21:08:46.228Z,100693.42
2023-01-10T21:11:21.619Z,100694.83
2023-01-10T21:14:16.362Z,100700.27
2023-01-10T21:16:59.103Z,100702.42
2023-01-10T21:19:42.884Z,100703.98
2023-01-10T21:22:20.269Z,100700.10
2023-01-10T21:25:05.526Z,100698.55
2023-01-10T21:27:59.584Z,100696.98
2023-01-10T21:30:47.369Z,100704.83
2023-01-10T21:33:41.350Z,100706.00
2023-01-10T21:36:35.556Z,100706.10
2023-01-10T21:39:20.177Z,100707.52
2023-01-10T21:42:12.191Z,100711.85
2023-01-10T21:45:07.477Z,100706.75
2023-01-10T21:48:01.983Z,100710.88
2023-01-10T21:50:56.180Z,100709.63
2023-01-10T21:53:34.302Z,100711.90
2023-01-10T21:56:19.687Z,100714.84
2023-01-10T21:59:14.106Z,100718.13
2023-01-10T22:01:51.718Z,100721.27
2023-01-10T22:04:28.789Z,100722.39
2023-01-10T22:07:02.759Z,100724.77
2023-01-10T22:09:57.866Z,100726.00
2023-01-10T22:12:52.095Z,100730.23
2023-01-10T22:15:29.421Z,100732.92
2023-01-10T22:18:17.739Z,100729.91
2023-01-10T22:21:11.775Z,100718.45
2023-01-10T22:24:06.137Z,100720.94
2023-01-10T22:26:42.976Z,100722.23
2023-01-10T22:29:17.158Z,100725.39
2023-01-10T22:32:11.524Z,100723.89
2023-01-10T22:34:45.236Z,100719.09
2023-01-10T22:37:29.797Z,100717.88
2023-01-10T22:40:24.412Z,100720.71
2023-01-10T22:43:00.621Z,100721.45
2023-01-10T22:45:34.696Z,100719.52
2023-01-10T22:48:08.935Z,100719.77
2023-01-10T22:50:51.153Z,100722.80
2023-01-10T22:53:35.959Z,100723.45
2023-01-10T22:56:30.340Z,100729.75
2023-01-10T23:02:33.503Z,100735.77
2023-01-10T23:05:18.937Z,100736.30
2023-01-10T23:07:55.859Z,100739.29
2023-01-10T23:10:51.049Z,100746.35
2023-01-10T23:13:25.535Z,100746.60
2023-01-10T23:16:15.975Z,100741.98
2023-01-10T23:18:52.649Z,100746.18
2023-01-10T23:21:26.489Z,100749.02
2023-01-10T23:24:21.101Z,100750.09
2023-01-10T23:26:55.189Z,100751.98
2023-01-10T23:29:29.965Z,100754.19
2023-01-10T23:32:07.461Z,100750.52
2023-01-10T23:34:41.262Z,100746.56
2023-01-10T23:37:26.199Z,100743.90
2023-01-10T23:40:12.480Z,100744.95
2023-01-10T23:42:57.586Z,100742.45
2023-01-10T23:45:52.400Z,100744.92
2023-01-10T23:48:26.703Z,100742.42
2023-01-10T23:51:03.442Z,100745.38
2023-01-10T23:53:51.679Z,100751.20
2023-01-10T23:56:45.937Z,100753.40
2023-01-10T23:59:29.740Z,100752.44
